createdAt,value
2018-05-21T00:00:34.432Z,28.27
2018-05-21T00:03:05.030Z,25.80
2018-05-21T00:05:32.934Z,27.47
2018-05-21T00:08:04.999Z,27.70
2018-05-21T00:10:35.139Z,31.63
2018-05-21T00:13:04.589Z,31.43
2018-05-21T00:15:32.384Z,29.93
2018-05-21T00:18:00.945Z,27.40
2018-05-21T00:20:35.472Z,35.07
2018-05-21T00:23:06.589Z,32.37
2018-05-21T00:25:34.736Z,27.43
2018-05-21T00:28:11.987Z,30.33
2018-05-21T00:30:42.557Z,31.43
2018-05-21T00:33:10.266Z,33.33
2018-05-21T00:35:38.144Z,29.23
2018-05-21T00:38:05.802Z,30.13
2018-05-21T00:40:38.791Z,30.40
2018-05-21T00:43:06.499Z,31.17
2018-05-21T00:45:34.105Z,29.00
2018-05-21T00:48:01.712Z,26.87
2018-05-21T00:50:29.363Z,29.20
2018-05-21T00:52:59.706Z,35.60
2018-05-21T00:55:37.392Z,30.27
2018-05-21T00:58:10.143Z,29.57
2018-05-21T01:00:42.810Z,29.67
2018-05-21T01:03:21.187Z,34.33
2018-05-21T01:05:54.855Z,32.87
2018-05-21T01:08:34.583Z,33.90
2018-05-21T01:11:04.597Z,37.40
2018-05-21T01:13:43.377Z,38.70
2018-05-21T01:16:16.094Z,36.03
2018-05-21T01:18:45.799Z,41.73
2018-05-21T01:21:23.770Z,38.17
2018-05-21T01:23:57.745Z,42.97
2018-05-21T01:29:09.118Z,43.73
2018-05-21T01:31:44.010Z,45.90
2018-05-21T01:34:18.803Z,45.77
2018-05-21T01:36:53.744Z,48.13
2018-05-21T01:39:27.501Z,42.83
2018-05-21T01:41:59.444Z,46.37
2018-05-21T01:44:30.820Z,41.67
2018-05-21T01:46:59.031Z,52.63
2018-05-21T01:49:26.605Z,55.83
2018-05-21T01:52:01.395Z,50.03
2018-05-21T01:54:29.738Z,51.33
2018-05-21T01:57:00.703Z,47.40
2018-05-21T01:59:32.036Z,51.50
2018-05-21T02:01:59.642Z,50.93
2018-05-21T02:04:29.313Z,49.80
2018-05-21T02:06:58.024Z,55.03
2018-05-21T02:09:27.454Z,50.17
2018-05-21T02:12:01.981Z,52.93
2018-05-21T02:14:32.737Z,62.53
2018-05-21T02:17:15.265Z,56.83
2018-05-21T02:19:43.066Z,52.17
2018-05-21T02:22:15.554Z,54.30
2018-05-21T02:24:43.963Z,49.43
2018-05-21T02:27:12.862Z,54.80
2018-05-21T02:29:41.653Z,49.87
2018-05-21T02:32:10.455Z,50.00
2018-05-21T02:34:41.656Z,53.90
2018-05-21T02:37:13.410Z,59.30
2018-05-21T02:39:41.467Z,49.07
2018-05-21T02:42:14.999Z,52.17
2018-05-21T02:45:02.446Z,52.00
2018-05-21T02:47:36.702Z,52.67
2018-05-21T02:50:10.974Z,53.30
2018-05-21T02:52:48.174Z,55.77
2018-05-21T02:55:19.390Z,52.33
2018-05-21T02:57:50.316Z,57.27
2018-05-21T03:00:18.957Z,57.50
2018-05-21T03:02:48.152Z,53.33
2018-05-21T03:05:20.881Z,57.00
2018-05-21T03:07:51.982Z,58.53
2018-05-21T03:10:20.351Z,55.13
2018-05-21T03:12:54.801Z,58.83
2018-05-21T03:15:30.801Z,54.67
2018-05-21T03:18:01.932Z,51.17
2018-05-21T03:20:32.568Z,60.90
2018-05-21T03:23:15.098Z,59.53
2018-05-21T03:25:51.585Z,58.20
2018-05-21T03:28:29.917Z,57.83
2018-05-21T03:30:57.569Z,48.53
2018-05-21T03:33:33.518Z,56.50
2018-05-21T03:36:04.024Z,52.67
2018-05-21T03:38:36.574Z,52.20
2018-05-21T03:41:04.587Z,57.03
2018-05-21T03:43:33.499Z,52.47
2018-05-21T03:46:01.339Z,50.90
2018-05-21T03:48:36.894Z,53.07
2018-05-21T03:51:05.163Z,53.00
2018-05-21T03:53:39.313Z,53.00
2018-05-21T03:56:10.315Z,57.40
2018-05-21T03:58:52.180Z,50.60
2018-05-21T04:01:32.734Z,53.80
2018-05-21T04:04:00.356Z,56.13
2018-05-21T04:06:34.715Z,60.53
2018-05-21T04:09:08.885Z,61.30
2018-05-21T04:11:39.342Z,59.27
2018-05-21T04:14:09.240Z,61.60
2018-05-21T04:16:48.069Z,53.77
2018-05-21T04:19:19.015Z,58.60
2018-05-21T04:21:49.849Z,60.40
2018-05-21T04:24:17.429Z,74.40
2018-05-21T04:26:45.381Z,75.87
2018-05-21T04:29:13.447Z,65.97
2018-05-21T04:31:42.316Z,56.73
2018-05-21T04:34:18.747Z,59.93
2018-05-21T04:36:53.394Z,61.47
2018-05-21T04:39:24.530Z,64.40
2018-05-21T04:41:55.795Z,59.47
2018-05-21T04:44:33.026Z,64.40
2018-05-21T04:47:07.867Z,57.10
2018-05-21T04:49:41.938Z,59.17
2018-05-21T04:52:14.514Z,61.20
2018-05-21T04:54:50.309Z,62.40
2018-05-21T04:57:22.492Z,63.93
2018-05-21T04:59:50.342Z,53.90
2018-05-21T05:02:28.475Z,59.17
2018-05-21T05:05:00.633Z,54.30
2018-05-21T05:07:35.084Z,50.53
2018-05-21T05:10:07.586Z,53.97
2018-05-21T05:12:43.746Z,53.77
2018-05-21T05:15:17.608Z,54.53
2018-05-21T05:17:49.442Z,54.17
2018-05-21T05:20:26.341Z,55.87
2018-05-21T05:22:56.188Z,58.20
2018-05-21T05:25:32.015Z,58.87
2018-05-21T05:28:04.139Z,57.37
2018-05-21T05:30:36.578Z,58.33
2018-05-21T05:33:04.687Z,62.70
2018-05-21T05:35:33.555Z,55.87
2018-05-21T05:38:05.810Z,61.80
2018-05-21T05:40:33.724Z,60.03
2018-05-21T05:43:05.868Z,61.47
2018-05-21T05:45:36.697Z,60.37
2018-05-21T05:48:11.915Z,63.13
2018-05-21T05:50:47.062Z,63.73
2018-05-21T05:53:17.324Z,57.37
2018-05-21T05:55:51.126Z,59.23
2018-05-21T05:58:28.722Z,62.70
2018-05-21T06:01:02.738Z,56.13
2018-05-21T06:03:37.530Z,55.07
2018-05-21T06:06:09.654Z,52.57
2018-05-21T06:08:47.132Z,58.07
2018-05-21T06:11:20.973Z,53.87
2018-05-21T06:13:57.849Z,60.90
2018-05-21T06:16:31.961Z,55.60
2018-05-21T06:19:11.120Z,56.13
2018-05-21T06:21:48.270Z,49.10
2018-05-21T06:24:20.277Z,51.30
2018-05-21T06:26:49.657Z,47.37
2018-05-21T06:29:21.570Z,48.27
2018-05-21T06:31:58.243Z,51.13
2018-05-21T06:34:36.991Z,48.73
2018-05-21T06:37:11.699Z,44.27
2018-05-21T06:39:42.220Z,53.20
2018-05-21T06:42:16.636Z,52.10
2018-05-21T06:44:51.129Z,56.20
2018-05-21T06:47:27.338Z,48.33
2018-05-21T06:50:01.808Z,45.53
2018-05-21T06:52:34.110Z,47.00
2018-05-21T06:55:03.615Z,49.00
2018-05-21T06:57:35.773Z,48.13
2018-05-21T07:00:07.014Z,48.43
2018-05-21T07:02:37.308Z,45.53
2018-05-21T07:05:06.342Z,49.57
2018-05-21T07:07:37.094Z,45.00
2018-05-21T07:10:06.764Z,51.70
2018-05-21T07:12:44.637Z,48.53
2018-05-21T07:15:14.998Z,48.03
2018-05-21T07:17:54.948Z,47.70
2018-05-21T07:20:36.268Z,47.13
2018-05-21T07:23:09.337Z,43.87
2018-05-21T07:25:39.699Z,42.87
2018-05-21T07:28:09.089Z,45.20
2018-05-21T07:30:39.056Z,45.80
2018-05-21T07:33:15.273Z,43.60
2018-05-21T07:35:52.793Z,42.43
2018-05-21T07:38:26.710Z,46.43
2018-05-21T07:41:02.324Z,43.03
2018-05-21T07:43:34.794Z,48.30
2018-05-21T07:46:09.847Z,42.83
2018-05-21T07:48:40.992Z,46.07
2018-05-21T07:51:17.963Z,38.23
2018-05-21T07:53:53.635Z,43.03
2018-05-21T07:56:29.117Z,43.77
2018-05-21T07:59:01.674Z,38.83
2018-05-21T08:01:41.920Z,38.27
2018-05-21T08:04:13.511Z,37.47
2018-05-21T08:06:46.973Z,39.57
2018-05-21T08:09:21.504Z,41.53
2018-05-21T08:11:59.591Z,38.57
2018-05-21T08:14:31.299Z,35.60
2018-05-21T08:17:10.644Z,41.80
2018-05-21T08:19:42.746Z,37.67
2018-05-21T08:22:15.797Z,37.97
2018-05-21T08:24:52.708Z,39.77
2018-05-21T08:27:29.303Z,36.03
2018-05-21T08:29:59.915Z,33.40
2018-05-21T08:32:35.488Z,35.80
2018-05-21T08:35:10.230Z,39.23
2018-05-21T08:37:47.847Z,34.40
2018-05-21T08:40:19.639Z,38.03
2018-05-21T08:42:54.861Z,31.97
2018-05-21T08:45:23.808Z,33.23
2018-05-21T08:47:54.445Z,35.47
2018-05-21T08:50:25.024Z,33.63
2018-05-21T08:52:53.971Z,32.20
2018-05-21T08:55:23.271Z,29.93
2018-05-21T08:57:55.539Z,30.47
2018-05-21T09:00:25.526Z,31.10
2018-05-21T09:03:01.761Z,28.63
2018-05-21T09:05:36.074Z,34.80
2018-05-21T09:08:10.446Z,31.17
2018-05-21T09:10:49.278Z,27.07
2018-05-21T09:13:20.659Z,30.27
2018-05-21T09:15:53.584Z,28.37
2018-05-21T09:18:25.796Z,30.63
2018-05-21T09:21:08.794Z,28.53
2018-05-21T09:23:41.550Z,28.07
2018-05-21T09:26:12.058Z,27.40
2018-05-21T09:28:49.408Z,26.80
2018-05-21T09:31:24.025Z,25.40
2018-05-21T09:34:00.353Z,25.83
2018-05-21T09:36:38.097Z,27.30
2018-05-21T09:39:12.577Z,23.00
2018-05-21T09:41:45.687Z,23.07
2018-05-21T09:44:21.274Z,25.57
2018-05-21T09:46:58.890Z,24.73
2018-05-21T09:49:28.511Z,26.60
2018-05-21T09:52:03.086Z,22.53
2018-05-21T09:54:44.385Z,21.87
2018-05-21T09:57:15.281Z,24.00
2018-05-21T09:59:50.312Z,24.07
2018-05-21T10:02:20.161Z,20.97
2018-05-21T10:04:49.390Z,20.77
2018-05-21T10:07:19.214Z,23.13
2018-05-21T10:09:49.659Z,20.63
2018-05-21T10:12:36.942Z,19.67
2018-05-21T10:15:16.629Z,21.93
2018-05-21T10:17:54.820Z,19.87
2018-05-21T10:20:27.618Z,21.17
2018-05-21T10:23:03.914Z,21.03
2018-05-21T10:25:40.831Z,22.50
2018-05-21T10:28:09.985Z,18.10
2018-05-21T10:30:43.195Z,17.87
2018-05-21T10:33:12.696Z,17.33
2018-05-21T10:35:41.678Z,16.33
2018-05-21T10:38:10.613Z,15.95
2018-05-21T10:40:39.586Z,13.00
2018-05-21T10:43:13.065Z,13.77
2018-05-21T10:45:49.781Z,13.25
2018-05-21T10:48:20.056Z,9.95
2018-05-21T10:51:00.044Z,13.07
2018-05-21T10:53:30.191Z,13.68
2018-05-21T10:56:06.878Z,12.23
2018-05-21T10:58:41.465Z,12.98
2018-05-21T11:01:14.975Z,12.55
2018-05-21T11:03:51.138Z,11.90
2018-05-21T11:06:22.764Z,12.23
2018-05-21T11:08:57.868Z,11.90
2018-05-21T11:11:37.701Z,10.85
2018-05-21T11:14:11.621Z,7.15
2018-05-21T11:16:42.982Z,9.88
2018-05-21T11:19:16.943Z,6.78
2018-05-21T11:21:51.042Z,7.82
2018-05-21T11:24:26.508Z,8.40
2018-05-21T11:27:01.599Z,9.70
2018-05-21T11:29:37.043Z,5.85
2018-05-21T11:32:12.523Z,6.35
2018-05-21T11:34:42.674Z,7.70
2018-05-21T11:37:20.677Z,7.00
2018-05-21T11:39:56.563Z,6.35
2018-05-21T11:42:25.724Z,5.80
2018-05-21T11:45:15.007Z,6.50
2018-05-21T11:47:44.195Z,7.03
2018-05-21T11:50:15.484Z,7.50
2018-05-21T11:52:51.183Z,7.03
2018-05-21T11:55:27.423Z,8.07
2018-05-21T11:57:59.497Z,7.03
2018-05-21T12:00:30.105Z,6.70
2018-05-21T12:02:59.496Z,7.78
2018-05-21T12:05:29.034Z,8.02
2018-05-21T12:07:58.639Z,7.82
2018-05-21T12:10:28.932Z,8.27
2018-05-21T12:12:59.765Z,8.48
2018-05-21T12:15:31.010Z,7.70
2018-05-21T12:18:08.751Z,8.23
2018-05-21T12:20:40.916Z,8.77
2018-05-21T12:23:10.418Z,9.63
2018-05-21T12:25:39.883Z,9.10
2018-05-21T12:28:10.591Z,10.57
2018-05-21T12:30:50.124Z,9.57
2018-05-21T12:33:19.039Z,9.18
2018-05-21T12:35:48.517Z,10.70
2018-05-21T12:38:19.958Z,9.43
2018-05-21T12:40:50.379Z,9.95
2018-05-21T12:43:23.052Z,9.68
2018-05-21T12:45:58.249Z,9.93
2018-05-21T12:48:34.715Z,9.90
2018-05-21T12:51:10.208Z,9.88
2018-05-21T12:53:53.334Z,10.95
2018-05-21T12:56:22.863Z,8.52
2018-05-21T12:58:55.300Z,10.90
2018-05-21T13:01:25.273Z,9.90
2018-05-21T13:04:01.808Z,9.43
2018-05-21T13:06:37.967Z,9.68
2018-05-21T13:09:11.001Z,10.77
2018-05-21T13:11:46.309Z,12.15
2018-05-21T13:14:22.236Z,8.57
2018-05-21T13:17:00.492Z,9.82
2018-05-21T13:19:36.987Z,9.02
2018-05-21T13:22:05.888Z,9.90
2018-05-21T13:24:43.843Z,9.27
2018-05-21T13:27:15.344Z,8.90
2018-05-21T13:29:50.090Z,8.80
2018-05-21T13:32:29.043Z,8.65
2018-05-21T13:34:59.228Z,9.25
2018-05-21T13:37:37.775Z,8.98
2018-05-21T13:40:11.263Z,8.15
2018-05-21T13:42:45.417Z,9.15
2018-05-21T13:45:19.887Z,9.02
2018-05-21T13:47:53.736Z,8.73
2018-05-21T13:50:29.837Z,8.32
2018-05-21T13:53:07.426Z,8.60
2018-05-21T13:55:36.401Z,8.52
2018-05-21T13:58:19.859Z,9.70
2018-05-21T14:00:49.878Z,8.75
2018-05-21T14:03:24.704Z,8.23
2018-05-21T14:05:59.636Z,9.32
2018-05-21T14:08:29.140Z,9.43
2018-05-21T14:10:59.328Z,8.05
2018-05-21T14:13:34.124Z,8.30
2018-05-21T14:16:03.750Z,9.88
2018-05-21T14:18:34.688Z,9.95
2018-05-21T14:21:05.626Z,8.55
2018-05-21T14:23:47.396Z,9.00
2018-05-21T14:26:17.927Z,8.70
2018-05-21T14:28:47.908Z,8.40
2018-05-21T14:31:21.076Z,8.52
2018-05-21T14:33:50.029Z,9.27
2018-05-21T14:36:25.793Z,8.57
2018-05-21T14:38:57.646Z,8.98
2018-05-21T14:41:34.784Z,8.10
2018-05-21T14:44:05.013Z,10.38
2018-05-21T14:46:33.984Z,8.55
2018-05-21T14:49:03.284Z,7.65
2018-05-21T14:51:52.958Z,8.85
2018-05-21T14:54:29.927Z,7.87
2018-05-21T14:57:02.593Z,8.60
2018-05-21T14:59:34.990Z,8.48
2018-05-21T15:02:13.725Z,9.75
2018-05-21T15:04:52.823Z,9.30
2018-05-21T15:07:25.012Z,9.07
2018-05-21T15:09:54.586Z,9.48
2018-05-21T15:12:24.135Z,9.43
2018-05-21T15:14:54.033Z,9.05
2018-05-21T15:17:27.169Z,8.70
2018-05-21T15:53:32.769Z,7.62
2018-05-21T15:59:24.319Z,6.97
2018-05-21T16:20:54.737Z,9.80
2018-05-21T16:33:18.894Z,6.30
2018-05-21T21:02:03.279Z,11.33
2018-05-21T21:04:33.934Z,12.23
2018-05-21T21:07:10.419Z,12.20
2018-05-21T21:09:43.933Z,13.37
2018-05-21T21:12:13.805Z,13.07
2018-05-21T21:14:45.827Z,12.63
2018-05-21T21:17:22.413Z,12.27
2018-05-21T21:19:56.886Z,11.93
2018-05-21T21:22:32.290Z,11.57
2018-05-21T21:25:11.010Z,11.37
2018-05-21T21:27:41.247Z,13.07
2018-05-21T21:30:12.320Z,12.40
2018-05-21T21:32:48.891Z,12.27
2018-05-21T21:35:23.879Z,11.27
2018-05-21T21:37:55.807Z,11.80
2018-05-21T21:40:32.853Z,12.20
2018-05-21T21:43:07.939Z,11.40
2018-05-21T21:45:44.452Z,10.60
2018-05-21T21:48:17.554Z,10.60
2018-05-21T21:50:51.161Z,10.47
2018-05-21T21:53:26.979Z,9.43
2018-05-21T21:56:03.135Z,9.83
2018-05-21T21:58:35.154Z,9.73
2018-05-21T22:01:12.261Z,9.27
2018-05-21T22:03:48.313Z,9.73
2018-05-21T22:06:21.731Z,10.23
2018-05-21T22:08:57.871Z,10.03
2018-05-21T22:11:35.351Z,9.87
2018-05-21T22:14:04.731Z,10.57
2018-05-21T22:16:38.208Z,10.57
2018-05-21T22:19:09.939Z,10.03
2018-05-21T22:21:46.787Z,12.83
2018-05-21T22:24:19.759Z,10.83
2018-05-21T22:26:54.073Z,10.57
2018-05-21T22:29:24.720Z,10.90
2018-05-21T22:31:54.653Z,10.23
2018-05-21T22:34:29.520Z,10.27
2018-05-21T22:36:58.477Z,10.07
2018-05-21T22:39:27.696Z,10.40
2018-05-21T22:41:56.675Z,10.10
2018-05-21T22:44:31.072Z,10.80
2018-05-21T22:47:02.326Z,11.30
2018-05-21T22:52:13.815Z,9.43
2018-05-21T22:54:50.746Z,9.20
2018-05-21T22:57:22.099Z,9.20
2018-05-21T23:00:00.253Z,10.43
2018-05-21T23:02:35.863Z,9.17
2018-05-21T23:05:06.583Z,8.83
2018-05-21T23:07:38.493Z,9.30
2018-05-21T23:10:08.439Z,9.23
2018-05-21T23:12:39.024Z,9.57
2018-05-21T23:15:08.678Z,9.73
2018-05-21T23:17:38.722Z,9.50
2018-05-21T23:20:08.016Z,9.97
2018-05-21T23:22:48.071Z,9.73
2018-05-21T23:25:17.993Z,9.27
2018-05-21T23:27:48.004Z,10.23
2018-05-21T23:30:16.989Z,9.50
2018-05-21T23:32:46.045Z,9.37
2018-05-21T23:35:16.175Z,10.77
2018-05-21T23:37:46.384Z,10.17
2018-05-21T23:40:16.493Z,9.50
2018-05-21T23:42:48.985Z,10.50
2018-05-21T23:45:21.030Z,9.33
2018-05-21T23:47:50.444Z,8.93
2018-05-21T23:50:24.805Z,9.27
2018-05-21T23:52:53.795Z,8.73
2018-05-21T23:55:30.806Z,8.53
2018-05-21T23:58:00.396Z,10.83
